sensor_id;sensor_type;location;lat;lon;timestamp;P1;durP1;ratioP1;P2;durP2;ratioP2
18405;SDS011;9329;48.720;9.588;2022-09-30T00:01:14;12.57;;;8.00;;
18405;SDS011;9329;48.720;9.588;2022-09-30T00:03:41;11.50;;;7.53;;
18405;SDS011;9329;48.720;9.588;2022-09-30T00:06:08;11.23;;;7.78;;
18405;SDS011;9329;48.720;9.588;2022-09-30T00:08:36;12.60;;;7.50;;
18405;SDS011;9329;48.720;9.588;2022-09-30T00:11:04;12.82;;;7.72;;
18405;SDS011;9329;48.720;9.588;2022-09-30T00:13:34;12.07;;;7.90;;
18405;SDS011;9329;48.720;9.588;2022-09-30T00:16:04;13.82;;;7.90;;
18405;SDS011;9329;48.720;9.588;2022-09-30T00:18:34;11.98;;;8.20;;
18405;SDS011;9329;48.720;9.588;2022-09-30T00:21:01;14.88;;;7.75;;
18405;SDS011;9329;48.720;9.588;2022-09-30T00:23:29;13.43;;;8.10;;
18405;SDS011;9329;48.720;9.588;2022-09-30T00:25:56;14.68;;;8.00;;
18405;SDS011;9329;48.720;9.588;2022-09-30T00:28:24;11.02;;;7.32;;
18405;SDS011;9329;48.720;9.588;2022-09-30T00:30:51;11.30;;;7.40;;
18405;SDS011;9329;48.720;9.588;2022-09-30T00:33:19;11.13;;;7.60;;
18405;SDS011;9329;48.720;9.588;2022-09-30T00:35:47;9.67;;;7.23;;
18405;SDS011;9329;48.720;9.588;2022-09-30T00:38:14;10.40;;;7.20;;
18405;SDS011;9329;48.720;9.588;2022-09-30T00:40:41;10.20;;;7.67;;
18405;SDS011;9329;48.720;9.588;2022-09-30T00:43:10;11.18;;;7.32;;
18405;SDS011;9329;48.720;9.588;2022-09-30T00:45:40;9.10;;;6.60;;
18405;SDS011;9329;48.720;9.588;2022-09-30T00:48:15;9.83;;;6.97;;
18405;SDS011;9329;48.720;9.588;2022-09-30T00:50:45;11.27;;;7.10;;
18405;SDS011;9329;48.720;9.588;2022-09-30T00:53:20;9.40;;;6.40;;
18405;SDS011;9329;48.720;9.588;2022-09-30T00:55:51;12.27;;;7.30;;
18405;SDS011;9329;48.720;9.588;2022-09-30T00:58:23;11.25;;;7.07;;
18405;SDS011;9329;48.720;9.588;2022-09-30T01:00:53;10.90;;;8.15;;
18405;SDS011;9329;48.720;9.588;2022-09-30T01:03:22;12.73;;;9.15;;
18405;SDS011;9329;48.720;9.588;2022-09-30T01:05:51;13.90;;;9.52;;
18405;SDS011;9329;48.720;9.588;2022-09-30T01:08:18;14.23;;;9.37;;
18405;SDS011;9329;48.720;9.588;2022-09-30T01:10:47;13.40;;;8.70;;
18405;SDS011;9329;48.720;9.588;2022-09-30T01:13:17;11.95;;;8.20;;
18405;SDS011;9329;48.720;9.588;2022-09-30T01:15:52;14.68;;;8.05;;
18405;SDS011;9329;48.720;9.588;2022-09-30T01:18:35;11.30;;;7.30;;
18405;SDS011;9329;48.720;9.588;2022-09-30T01:24:12;9.93;;;7.13;;
18405;SDS011;9329;48.720;9.588;2022-09-30T01:26:52;10.90;;;7.97;;
18405;SDS011;9329;48.720;9.588;2022-09-30T01:35:37;10.45;;;7.53;;
18405;SDS011;9329;48.720;9.588;2022-09-30T01:38:12;11.20;;;7.53;;
18405;SDS011;9329;48.720;9.588;2022-09-30T01:40:44;11.50;;;7.00;;
18405;SDS011;9329;48.720;9.588;2022-09-30T01:43:19;11.15;;;7.00;;
18405;SDS011;9329;48.720;9.588;2022-09-30T01:45:55;12.38;;;7.78;;
18405;SDS011;9329;48.720;9.588;2022-09-30T01:48:27;10.85;;;7.20;;
18405;SDS011;9329;48.720;9.588;2022-09-30T01:51:04;11.90;;;7.30;;
18405;SDS011;9329;48.720;9.588;2022-09-30T01:53:36;11.15;;;7.22;;
18405;SDS011;9329;48.720;9.588;2022-09-30T01:56:10;9.93;;;6.70;;
18405;SDS011;9329;48.720;9.588;2022-09-30T01:58:43;12.30;;;7.03;;
18405;SDS011;9329;48.720;9.588;2022-09-30T02:01:18;9.85;;;6.45;;
18405;SDS011;9329;48.720;9.588;2022-09-30T02:03:52;8.55;;;6.53;;
18405;SDS011;9329;48.720;9.588;2022-09-30T02:06:22;10.02;;;6.35;;
18405;SDS011;9329;48.720;9.588;2022-09-30T02:08:53;11.20;;;6.13;;
18405;SDS011;9329;48.720;9.588;2022-09-30T02:11:25;10.02;;;6.22;;
18405;SDS011;9329;48.720;9.588;2022-09-30T02:13:55;10.23;;;7.13;;
18405;SDS011;9329;48.720;9.588;2022-09-30T02:16:37;14.23;;;9.23;;
18405;SDS011;9329;48.720;9.588;2022-09-30T02:19:10;12.07;;;8.82;;
18405;SDS011;9329;48.720;9.588;2022-09-30T02:21:46;13.43;;;9.30;;
18405;SDS011;9329;48.720;9.588;2022-09-30T02:24:18;11.45;;;8.95;;
18405;SDS011;9329;48.720;9.588;2022-09-30T02:26:49;12.67;;;8.10;;
18405;SDS011;9329;48.720;9.588;2022-09-30T02:29:21;10.32;;;7.97;;
18405;SDS011;9329;48.720;9.588;2022-09-30T02:31:53;9.98;;;7.45;;
18405;SDS011;9329;48.720;9.588;2022-09-30T02:34:26;9.13;;;7.50;;
18405;SDS011;9329;48.720;9.588;2022-09-30T02:36:59;13.00;;;10.00;;
18405;SDS011;9329;48.720;9.588;2022-09-30T02:39:31;17.25;;;13.25;;
18405;SDS011;9329;48.720;9.588;2022-09-30T02:42:05;18.50;;;14.10;;
18405;SDS011;9329;48.720;9.588;2022-09-30T02:44:37;11.48;;;7.82;;
18405;SDS011;9329;48.720;9.588;2022-09-30T02:47:08;10.00;;;7.28;;
18405;SDS011;9329;48.720;9.588;2022-09-30T02:49:41;12.27;;;7.40;;
18405;SDS011;9329;48.720;9.588;2022-09-30T02:52:14;10.23;;;7.50;;
18405;SDS011;9329;48.720;9.588;2022-09-30T02:54:52;10.95;;;7.57;;
18405;SDS011;9329;48.720;9.588;2022-09-30T02:57:33;11.10;;;7.20;;
18405;SDS011;9329;48.720;9.588;2022-09-30T03:00:05;9.25;;;7.15;;
18405;SDS011;9329;48.720;9.588;2022-09-30T03:02:33;11.60;;;7.32;;
18405;SDS011;9329;48.720;9.588;2022-09-30T03:05:02;9.07;;;7.60;;
18405;SDS011;9329;48.720;9.588;2022-09-30T03:07:29;10.82;;;7.07;;
18405;SDS011;9329;48.720;9.588;2022-09-30T03:09:56;10.80;;;7.28;;
18405;SDS011;9329;48.720;9.588;2022-09-30T03:12:27;9.93;;;6.93;;
18405;SDS011;9329;48.720;9.588;2022-09-30T03:17:54;10.77;;;7.28;;
18405;SDS011;9329;48.720;9.588;2022-09-30T03:20:35;9.20;;;7.25;;
18405;SDS011;9329;48.720;9.588;2022-09-30T03:23:20;11.65;;;7.07;;
18405;SDS011;9329;48.720;9.588;2022-09-30T03:26:03;8.50;;;6.03;;
18405;SDS011;9329;48.720;9.588;2022-09-30T03:28:40;9.90;;;7.10;;
18405;SDS011;9329;48.720;9.588;2022-09-30T03:31:17;8.98;;;7.00;;
18405;SDS011;9329;48.720;9.588;2022-09-30T03:33:50;11.48;;;8.15;;
18405;SDS011;9329;48.720;9.588;2022-09-30T03:36:24;13.68;;;9.48;;
18405;SDS011;9329;48.720;9.588;2022-09-30T03:38:59;12.88;;;7.70;;
18405;SDS011;9329;48.720;9.588;2022-09-30T03:41:31;14.52;;;9.07;;
18405;SDS011;9329;48.720;9.588;2022-09-30T03:44:06;12.85;;;8.50;;
18405;SDS011;9329;48.720;9.588;2022-09-30T03:46:37;14.23;;;9.25;;
18405;SDS011;9329;48.720;9.588;2022-09-30T03:49:07;19.83;;;13.30;;
18405;SDS011;9329;48.720;9.588;2022-09-30T03:51:38;17.20;;;11.80;;
18405;SDS011;9329;48.720;9.588;2022-09-30T03:54:07;14.32;;;11.35;;
18405;SDS011;9329;48.720;9.588;2022-09-30T03:56:35;12.68;;;8.60;;
18405;SDS011;9329;48.720;9.588;2022-09-30T03:59:08;13.07;;;8.75;;
18405;SDS011;9329;48.720;9.588;2022-09-30T04:01:36;11.82;;;8.05;;
18405;SDS011;9329;48.720;9.588;2022-09-30T04:04:05;12.33;;;8.80;;
18405;SDS011;9329;48.720;9.588;2022-09-30T04:06:32;18.05;;;13.57;;
18405;SDS011;9329;48.720;9.588;2022-09-30T04:09:00;18.10;;;13.50;;
18405;SDS011;9329;48.720;9.588;2022-09-30T04:11:27;18.50;;;12.80;;
18405;SDS011;9329;48.720;9.588;2022-09-30T04:13:54;15.68;;;12.70;;
18405;SDS011;9329;48.720;9.588;2022-09-30T04:16:21;18.95;;;14.23;;
18405;SDS011;9329;48.720;9.588;2022-09-30T04:18:49;19.45;;;14.85;;
18405;SDS011;9329;48.720;9.588;2022-09-30T04:21:23;25.35;;;20.40;;
18405;SDS011;9329;48.720;9.588;2022-09-30T04:23:53;13.95;;;10.75;;
18405;SDS011;9329;48.720;9.588;2022-09-30T04:26:21;11.35;;;8.48;;
18405;SDS011;9329;48.720;9.588;2022-09-30T04:28:48;12.80;;;9.05;;
18405;SDS011;9329;48.720;9.588;2022-09-30T04:31:17;12.82;;;9.63;;
18405;SDS011;9329;48.720;9.588;2022-09-30T04:33:44;17.00;;;11.18;;
18405;SDS011;9329;48.720;9.588;2022-09-30T04:36:11;43.83;;;28.53;;
18405;SDS011;9329;48.720;9.588;2022-09-30T04:38:38;37.35;;;23.83;;
18405;SDS011;9329;48.720;9.588;2022-09-30T04:41:05;28.27;;;19.27;;
18405;SDS011;9329;48.720;9.588;2022-09-30T04:43:34;19.73;;;14.52;;
18405;SDS011;9329;48.720;9.588;2022-09-30T04:46:01;18.35;;;12.73;;
18405;SDS011;9329;48.720;9.588;2022-09-30T04:48:28;15.95;;;11.70;;
18405;SDS011;9329;48.720;9.588;2022-09-30T04:50:56;14.38;;;10.45;;
18405;SDS011;9329;48.720;9.588;2022-09-30T04:53:25;15.23;;;11.10;;
18405;SDS011;9329;48.720;9.588;2022-09-30T04:55:56;13.05;;;9.98;;
18405;SDS011;9329;48.720;9.588;2022-09-30T04:58:25;14.52;;;10.30;;
18405;SDS011;9329;48.720;9.588;2022-09-30T05:00:59;13.07;;;9.93;;
18405;SDS011;9329;48.720;9.588;2022-09-30T05:03:27;14.45;;;9.50;;
18405;SDS011;9329;48.720;9.588;2022-09-30T05:05:54;12.32;;;9.02;;
18405;SDS011;9329;48.720;9.588;2022-09-30T05:08:22;12.97;;;9.70;;
18405;SDS011;9329;48.720;9.588;2022-09-30T05:10:52;13.18;;;9.85;;
18405;SDS011;9329;48.720;9.588;2022-09-30T05:13:21;13.57;;;9.63;;
18405;SDS011;9329;48.720;9.588;2022-09-30T05:15:49;14.32;;;9.68;;
18405;SDS011;9329;48.720;9.588;2022-09-30T05:18:18;13.38;;;10.15;;
18405;SDS011;9329;48.720;9.588;2022-09-30T05:20:47;22.03;;;15.50;;
18405;SDS011;9329;48.720;9.588;2022-09-30T05:23:15;21.85;;;14.32;;
18405;SDS011;9329;48.720;9.588;2022-09-30T05:25:42;18.30;;;13.50;;
18405;SDS011;9329;48.720;9.588;2022-09-30T05:28:10;16.50;;;12.70;;
18405;SDS011;9329;48.720;9.588;2022-09-30T05:30:37;19.05;;;13.48;;
18405;SDS011;9329;48.720;9.588;2022-09-30T05:33:06;17.98;;;12.73;;
18405;SDS011;9329;48.720;9.588;2022-09-30T05:35:35;16.23;;;12.48;;
18405;SDS011;9329;48.720;9.588;2022-09-30T05:38:02;15.75;;;11.73;;
18405;SDS011;9329;48.720;9.588;2022-09-30T05:40:29;16.70;;;12.65;;
18405;SDS011;9329;48.720;9.588;2022-09-30T05:42:56;19.23;;;13.15;;
18405;SDS011;9329;48.720;9.588;2022-09-30T05:45:24;19.40;;;13.40;;
18405;SDS011;9329;48.720;9.588;2022-09-30T05:47:51;13.77;;;11.25;;
18405;SDS011;9329;48.720;9.588;2022-09-30T05:50:19;13.27;;;10.52;;
18405;SDS011;9329;48.720;9.588;2022-09-30T05:52:48;13.68;;;10.35;;
18405;SDS011;9329;48.720;9.588;2022-09-30T05:55:15;13.55;;;11.27;;
18405;SDS011;9329;48.720;9.588;2022-09-30T05:57:42;15.87;;;12.30;;
18405;SDS011;9329;48.720;9.588;2022-09-30T06:00:13;17.70;;;13.80;;
18405;SDS011;9329;48.720;9.588;2022-09-30T06:02:40;15.25;;;11.80;;
18405;SDS011;9329;48.720;9.588;2022-09-30T06:05:08;13.95;;;10.90;;
18405;SDS011;9329;48.720;9.588;2022-09-30T06:07:36;14.60;;;11.30;;
18405;SDS011;9329;48.720;9.588;2022-09-30T06:10:06;14.70;;;11.48;;
18405;SDS011;9329;48.720;9.588;2022-09-30T06:12:36;17.65;;;12.50;;
18405;SDS011;9329;48.720;9.588;2022-09-30T06:15:04;16.75;;;11.25;;
18405;SDS011;9329;48.720;9.588;2022-09-30T06:17:32;14.00;;;10.70;;
18405;SDS011;9329;48.720;9.588;2022-09-30T06:19:59;12.63;;;9.97;;
18405;SDS011;9329;48.720;9.588;2022-09-30T06:22:29;14.50;;;10.75;;
18405;SDS011;9329;48.720;9.588;2022-09-30T06:25:00;14.07;;;9.70;;
18405;SDS011;9329;48.720;9.588;2022-09-30T06:27:31;17.70;;;11.05;;
18405;SDS011;9329;48.720;9.588;2022-09-30T06:29:58;14.13;;;10.98;;
18405;SDS011;9329;48.720;9.588;2022-09-30T06:32:25;14.85;;;11.10;;
18405;SDS011;9329;48.720;9.588;2022-09-30T06:34:54;15.52;;;10.75;;
18405;SDS011;9329;48.720;9.588;2022-09-30T06:37:21;14.50;;;10.73;;
18405;SDS011;9329;48.720;9.588;2022-09-30T06:39:49;16.13;;;11.40;;
18405;SDS011;9329;48.720;9.588;2022-09-30T06:42:16;12.88;;;10.00;;
18405;SDS011;9329;48.720;9.588;2022-09-30T06:44:45;14.52;;;10.30;;
18405;SDS011;9329;48.720;9.588;2022-09-30T06:47:12;14.77;;;10.50;;
18405;SDS011;9329;48.720;9.588;2022-09-30T06:49:39;13.95;;;10.30;;
18405;SDS011;9329;48.720;9.588;2022-09-30T06:52:07;13.55;;;9.48;;
18405;SDS011;9329;48.720;9.588;2022-09-30T06:54:37;11.33;;;9.00;;
18405;SDS011;9329;48.720;9.588;2022-09-30T06:57:05;12.75;;;9.40;;
18405;SDS011;9329;48.720;9.588;2022-09-30T06:59:32;13.15;;;9.52;;
18405;SDS011;9329;48.720;9.588;2022-09-30T07:02:01;13.60;;;10.27;;
18405;SDS011;9329;48.720;9.588;2022-09-30T07:04:28;14.77;;;9.88;;
18405;SDS011;9329;48.720;9.588;2022-09-30T07:06:55;15.00;;;10.55;;
18405;SDS011;9329;48.720;9.588;2022-09-30T07:09:22;14.00;;;10.70;;
18405;SDS011;9329;48.720;9.588;2022-09-30T07:11:49;15.50;;;11.32;;
18405;SDS011;9329;48.720;9.588;2022-09-30T07:14:16;15.57;;;11.40;;
18405;SDS011;9329;48.720;9.588;2022-09-30T07:16:43;15.88;;;11.98;;
18405;SDS011;9329;48.720;9.588;2022-09-30T07:19:12;14.00;;;10.80;;
18405;SDS011;9329;48.720;9.588;2022-09-30T07:21:41;14.80;;;10.18;;
18405;SDS011;9329;48.720;9.588;2022-09-30T07:24:08;16.35;;;9.90;;
18405;SDS011;9329;48.720;9.588;2022-09-30T07:26:35;12.35;;;9.40;;
18405;SDS011;9329;48.720;9.588;2022-09-30T07:29:05;12.27;;;9.10;;
18405;SDS011;9329;48.720;9.588;2022-09-30T07:31:32;14.33;;;9.67;;
18405;SDS011;9329;48.720;9.588;2022-09-30T07:33:59;12.00;;;9.52;;
18405;SDS011;9329;48.720;9.588;2022-09-30T07:36:28;12.73;;;9.65;;
18405;SDS011;9329;48.720;9.588;2022-09-30T07:38:55;14.75;;;9.80;;
18405;SDS011;9329;48.720;9.588;2022-09-30T07:41:24;13.25;;;10.23;;
18405;SDS011;9329;48.720;9.588;2022-09-30T07:43:53;12.77;;;10.18;;
18405;SDS011;9329;48.720;9.588;2022-09-30T07:46:24;14.75;;;10.10;;
18405;SDS011;9329;48.720;9.588;2022-09-30T07:48:53;14.23;;;10.32;;
18405;SDS011;9329;48.720;9.588;2022-09-30T07:51:25;13.70;;;10.60;;
18405;SDS011;9329;48.720;9.588;2022-09-30T07:53:56;12.65;;;9.70;;
18405;SDS011;9329;48.720;9.588;2022-09-30T07:56:25;15.05;;;10.30;;
18405;SDS011;9329;48.720;9.588;2022-09-30T07:58:52;13.23;;;9.75;;
18405;SDS011;9329;48.720;9.588;2022-09-30T08:01:21;15.73;;;11.07;;
18405;SDS011;9329;48.720;9.588;2022-09-30T08:03:51;18.42;;;11.40;;
18405;SDS011;9329;48.720;9.588;2022-09-30T08:06:19;15.38;;;11.10;;
18405;SDS011;9329;48.720;9.588;2022-09-30T08:08:49;13.57;;;10.07;;
18405;SDS011;9329;48.720;9.588;2022-09-30T08:11:18;15.75;;;11.20;;
18405;SDS011;9329;48.720;9.588;2022-09-30T08:13:48;12.57;;;10.02;;
18405;SDS011;9329;48.720;9.588;2022-09-30T08:16:16;14.27;;;10.18;;
18405;SDS011;9329;48.720;9.588;2022-09-30T08:18:44;13.55;;;10.07;;
18405;SDS011;9329;48.720;9.588;2022-09-30T08:21:11;12.30;;;9.88;;
18405;SDS011;9329;48.720;9.588;2022-09-30T08:23:38;14.53;;;10.40;;
18405;SDS011;9329;48.720;9.588;2022-09-30T08:26:07;14.27;;;9.57;;
18405;SDS011;9329;48.720;9.588;2022-09-30T08:28:36;13.18;;;9.45;;
18405;SDS011;9329;48.720;9.588;2022-09-30T08:31:05;11.95;;;8.82;;
18405;SDS011;9329;48.720;9.588;2022-09-30T08:33:33;12.27;;;9.25;;
18405;SDS011;9329;48.720;9.588;2022-09-30T08:36:01;13.52;;;9.52;;
18405;SDS011;9329;48.720;9.588;2022-09-30T08:38:29;11.07;;;8.95;;
18405;SDS011;9329;48.720;9.588;2022-09-30T08:40:58;12.48;;;9.35;;
18405;SDS011;9329;48.720;9.588;2022-09-30T08:43:35;14.38;;;9.38;;
18405;SDS011;9329;48.720;9.588;2022-09-30T08:46:09;15.07;;;10.07;;
18405;SDS011;9329;48.720;9.588;2022-09-30T08:48:43;13.38;;;9.88;;
18405;SDS011;9329;48.720;9.588;2022-09-30T08:51:21;14.07;;;9.73;;
18405;SDS011;9329;48.720;9.588;2022-09-30T08:53:56;12.57;;;10.15;;
18405;SDS011;9329;48.720;9.588;2022-09-30T08:56:28;16.38;;;9.48;;
18405;SDS011;9329;48.720;9.588;2022-09-30T08:59:00;14.55;;;10.15;;
18405;SDS011;9329;48.720;9.588;2022-09-30T09:01:32;11.98;;;9.38;;
18405;SDS011;9329;48.720;9.588;2022-09-30T09:04:02;12.55;;;9.77;;
18405;SDS011;9329;48.720;9.588;2022-09-30T09:06:32;14.00;;;9.38;;
18405;SDS011;9329;48.720;9.588;2022-09-30T09:09:10;12.32;;;9.40;;
18405;SDS011;9329;48.720;9.588;2022-09-30T09:11:57;14.00;;;9.75;;
18405;SDS011;9329;48.720;9.588;2022-09-30T09:14:45;12.70;;;9.18;;
18405;SDS011;9329;48.720;9.588;2022-09-30T09:17:36;13.93;;;9.38;;
18405;SDS011;9329;48.720;9.588;2022-09-30T09:20:16;12.18;;;8.55;;
18405;SDS011;9329;48.720;9.588;2022-09-30T09:22:46;11.65;;;9.27;;
18405;SDS011;9329;48.720;9.588;2022-09-30T09:25:16;12.10;;;9.80;;
18405;SDS011;9329;48.720;9.588;2022-09-30T09:27:47;14.88;;;10.50;;
18405;SDS011;9329;48.720;9.588;2022-09-30T09:30:20;12.77;;;9.43;;
18405;SDS011;9329;48.720;9.588;2022-09-30T09:32:49;14.93;;;9.70;;
18405;SDS011;9329;48.720;9.588;2022-09-30T09:35:24;13.05;;;10.02;;
18405;SDS011;9329;48.720;9.588;2022-09-30T09:38:01;14.35;;;9.50;;
18405;SDS011;9329;48.720;9.588;2022-09-30T09:40:54;13.20;;;9.50;;
18405;SDS011;9329;48.720;9.588;2022-09-30T09:43:32;12.82;;;9.13;;
18405;SDS011;9329;48.720;9.588;2022-09-30T09:46:14;13.43;;;9.10;;
18405;SDS011;9329;48.720;9.588;2022-09-30T09:48:48;13.50;;;9.60;;
18405;SDS011;9329;48.720;9.588;2022-09-30T09:51:18;11.63;;;9.32;;
18405;SDS011;9329;48.720;9.588;2022-09-30T09:53:52;11.63;;;9.50;;
18405;SDS011;9329;48.720;9.588;2022-09-30T09:56:25;15.35;;;10.77;;
18405;SDS011;9329;48.720;9.588;2022-09-30T09:59:08;12.87;;;9.43;;
18405;SDS011;9329;48.720;9.588;2022-09-30T10:01:39;14.27;;;9.90;;
18405;SDS011;9329;48.720;9.588;2022-09-30T10:04:10;16.67;;;9.80;;
18405;SDS011;9329;48.720;9.588;2022-09-30T10:06:47;12.93;;;9.38;;
18405;SDS011;9329;48.720;9.588;2022-09-30T10:09:27;13.15;;;8.93;;
18405;SDS011;9329;48.720;9.588;2022-09-30T10:14:58;12.05;;;8.88;;
18405;SDS011;9329;48.720;9.588;2022-09-30T10:17:29;13.45;;;9.45;;
18405;SDS011;9329;48.720;9.588;2022-09-30T10:19:59;11.27;;;8.57;;
18405;SDS011;9329;48.720;9.588;2022-09-30T10:22:31;12.13;;;8.63;;
18405;SDS011;9329;48.720;9.588;2022-09-30T10:25:14;11.73;;;7.87;;
18405;SDS011;9329;48.720;9.588;2022-09-30T10:27:49;9.70;;;8.35;;
18405;SDS011;9329;48.720;9.588;2022-09-30T10:33:13;9.97;;;7.90;;
18405;SDS011;9329;48.720;9.588;2022-09-30T10:35:49;7.90;;;6.33;;
18405;SDS011;9329;48.720;9.588;2022-09-30T10:38:20;8.20;;;6.20;;
18405;SDS011;9329;48.720;9.588;2022-09-30T10:40:48;8.15;;;6.10;;
18405;SDS011;9329;48.720;9.588;2022-09-30T10:43:19;6.50;;;4.93;;
18405;SDS011;9329;48.720;9.588;2022-09-30T10:45:48;5.77;;;4.17;;
18405;SDS011;9329;48.720;9.588;2022-09-30T10:48:18;5.90;;;4.20;;
18405;SDS011;9329;48.720;9.588;2022-09-30T10:50:50;5.47;;;3.63;;
18405;SDS011;9329;48.720;9.588;2022-09-30T10:53:20;4.93;;;3.80;;
18405;SDS011;9329;48.720;9.588;2022-09-30T10:55:50;4.88;;;3.50;;
18405;SDS011;9329;48.720;9.588;2022-09-30T10:58:27;4.95;;;3.60;;
18405;SDS011;9329;48.720;9.588;2022-09-30T11:01:02;6.35;;;3.90;;
18405;SDS011;9329;48.720;9.588;2022-09-30T11:03:38;4.72;;;3.55;;
18405;SDS011;9329;48.720;9.588;2022-09-30T11:06:10;5.22;;;3.80;;
18405;SDS011;9329;48.720;9.588;2022-09-30T11:11:09;4.53;;;3.30;;
18405;SDS011;9329;48.720;9.588;2022-09-30T11:13:40;4.60;;;3.38;;
18405;SDS011;9329;48.720;9.588;2022-09-30T11:16:14;6.53;;;3.35;;
18405;SDS011;9329;48.720;9.588;2022-09-30T11:18:52;4.18;;;2.75;;
18405;SDS011;9329;48.720;9.588;2022-09-30T11:21:25;4.32;;;2.70;;
18405;SDS011;9329;48.720;9.588;2022-09-30T11:24:00;5.30;;;3.25;;
18405;SDS011;9329;48.720;9.588;2022-09-30T11:26:33;5.20;;;2.60;;
18405;SDS011;9329;48.720;9.588;2022-09-30T11:29:13;4.57;;;2.70;;
18405;SDS011;9329;48.720;9.588;2022-09-30T11:31:53;3.70;;;2.10;;
18405;SDS011;9329;48.720;9.588;2022-09-30T11:34:34;3.60;;;1.70;;
18405;SDS011;9329;48.720;9.588;2022-09-30T11:37:14;3.20;;;2.00;;
18405;SDS011;9329;48.720;9.588;2022-09-30T11:39:57;3.35;;;2.00;;
18405;SDS011;9329;48.720;9.588;2022-09-30T11:42:45;3.25;;;1.90;;
18405;SDS011;9329;48.720;9.588;2022-09-30T11:45:22;3.72;;;2.45;;
18405;SDS011;9329;48.720;9.588;2022-09-30T11:48:05;2.78;;;2.10;;
18405;SDS011;9329;48.720;9.588;2022-09-30T11:50:53;6.53;;;1.80;;
18405;SDS011;9329;48.720;9.588;2022-09-30T11:53:31;3.90;;;1.70;;
18405;SDS011;9329;48.720;9.588;2022-09-30T11:56:07;2.50;;;1.50;;
18405;SDS011;9329;48.720;9.588;2022-09-30T11:58:44;2.55;;;1.60;;
18405;SDS011;9329;48.720;9.588;2022-09-30T12:01:17;2.90;;;1.80;;
18405;SDS011;9329;48.720;9.588;2022-09-30T12:03:50;2.67;;;1.40;;
18405;SDS011;9329;48.720;9.588;2022-09-30T12:06:27;2.58;;;1.52;;
18405;SDS011;9329;48.720;9.588;2022-09-30T12:08:58;2.55;;;1.20;;
18405;SDS011;9329;48.720;9.588;2022-09-30T12:11:33;2.00;;;1.20;;
18405;SDS011;9329;48.720;9.588;2022-09-30T12:14:09;2.55;;;1.30;;
18405;SDS011;9329;48.720;9.588;2022-09-30T12:16:41;3.33;;;1.20;;
18405;SDS011;9329;48.720;9.588;2022-09-30T12:19:13;2.60;;;1.40;;
18405;SDS011;9329;48.720;9.588;2022-09-30T12:21:46;2.35;;;1.20;;
18405;SDS011;9329;48.720;9.588;2022-09-30T12:24:20;1.88;;;1.00;;
18405;SDS011;9329;48.720;9.588;2022-09-30T12:26:53;2.60;;;1.15;;
18405;SDS011;9329;48.720;9.588;2022-09-30T12:29:21;2.53;;;1.05;;
18405;SDS011;9329;48.720;9.588;2022-09-30T12:32:20;2.27;;;0.90;;
18405;SDS011;9329;48.720;9.588;2022-09-30T12:35:05;2.42;;;0.80;;
18405;SDS011;9329;48.720;9.588;2022-09-30T12:37:53;2.28;;;0.82;;
18405;SDS011;9329;48.720;9.588;2022-09-30T12:40:35;1.60;;;0.70;;
18405;SDS011;9329;48.720;9.588;2022-09-30T12:43:22;1.85;;;0.90;;
18405;SDS011;9329;48.720;9.588;2022-09-30T12:48:42;1.70;;;0.70;;
18405;SDS011;9329;48.720;9.588;2022-09-30T12:51:19;1.83;;;0.70;;
18405;SDS011;9329;48.720;9.588;2022-09-30T12:53:52;1.45;;;0.80;;
18405;SDS011;9329;48.720;9.588;2022-09-30T12:56:24;2.22;;;0.90;;
18405;SDS011;9329;48.720;9.588;2022-09-30T12:58:54;1.50;;;0.70;;
18405;SDS011;9329;48.720;9.588;2022-09-30T13:01:24;2.60;;;0.70;;
18405;SDS011;9329;48.720;9.588;2022-09-30T13:04:17;1.10;;;0.60;;
18405;SDS011;9329;48.720;9.588;2022-09-30T13:09:57;2.28;;;0.85;;
18405;SDS011;9329;48.720;9.588;2022-09-30T13:12:46;2.03;;;0.90;;
18405;SDS011;9329;48.720;9.588;2022-09-30T13:15:21;2.35;;;0.70;;
18405;SDS011;9329;48.720;9.588;2022-09-30T13:21:18;2.83;;;0.88;;
18405;SDS011;9329;48.720;9.588;2022-09-30T13:23:49;2.08;;;0.98;;
18405;SDS011;9329;48.720;9.588;2022-09-30T13:26:38;2.10;;;0.85;;
18405;SDS011;9329;48.720;9.588;2022-09-30T13:29:32;1.85;;;1.00;;
18405;SDS011;9329;48.720;9.588;2022-09-30T13:32:04;4.95;;;1.00;;
18405;SDS011;9329;48.720;9.588;2022-09-30T13:34:46;1.58;;;1.00;;
18405;SDS011;9329;48.720;9.588;2022-09-30T13:37:37;2.28;;;0.93;;
18405;SDS011;9329;48.720;9.588;2022-09-30T13:40:12;2.13;;;0.80;;
18405;SDS011;9329;48.720;9.588;2022-09-30T13:42:48;3.35;;;0.80;;
18405;SDS011;9329;48.720;9.588;2022-09-30T13:45:20;1.65;;;0.90;;
18405;SDS011;9329;48.720;9.588;2022-09-30T13:48:00;1.73;;;0.95;;
18405;SDS011;9329;48.720;9.588;2022-09-30T13:50:42;2.80;;;1.00;;
18405;SDS011;9329;48.720;9.588;2022-09-30T13:53:14;2.53;;;0.90;;
18405;SDS011;9329;48.720;9.588;2022-09-30T13:55:46;2.00;;;1.10;;
18405;SDS011;9329;48.720;9.588;2022-09-30T14:01:22;1.80;;;0.90;;
18405;SDS011;9329;48.720;9.588;2022-09-30T14:04:06;2.60;;;0.90;;
18405;SDS011;9329;48.720;9.588;2022-09-30T14:07:01;2.38;;;0.90;;
18405;SDS011;9329;48.720;9.588;2022-09-30T14:09:36;1.83;;;1.00;;
18405;SDS011;9329;48.720;9.588;2022-09-30T14:12:16;1.67;;;0.90;;
18405;SDS011;9329;48.720;9.588;2022-09-30T14:21:12;2.28;;;0.77;;
18405;SDS011;9329;48.720;9.588;2022-09-30T14:23:54;1.70;;;0.60;;
18405;SDS011;9329;48.720;9.588;2022-09-30T14:26:30;1.30;;;0.70;;
18405;SDS011;9329;48.720;9.588;2022-09-30T14:29:14;1.52;;;0.80;;
18405;SDS011;9329;48.720;9.588;2022-09-30T14:31:47;1.52;;;0.80;;
18405;SDS011;9329;48.720;9.588;2022-09-30T14:34:14;1.80;;;0.90;;
18405;SDS011;9329;48.720;9.588;2022-09-30T14:36:44;4.40;;;0.98;;
18405;SDS011;9329;48.720;9.588;2022-09-30T14:39:14;2.90;;;0.90;;
18405;SDS011;9329;48.720;9.588;2022-09-30T14:41:46;5.32;;;1.00;;
18405;SDS011;9329;48.720;9.588;2022-09-30T14:44:17;4.20;;;0.90;;
18405;SDS011;9329;48.720;9.588;2022-09-30T14:46:47;2.03;;;0.90;;
18405;SDS011;9329;48.720;9.588;2022-09-30T14:49:17;2.80;;;1.07;;
18405;SDS011;9329;48.720;9.588;2022-09-30T14:51:48;3.47;;;1.05;;
18405;SDS011;9329;48.720;9.588;2022-09-30T14:54:20;2.83;;;0.90;;
18405;SDS011;9329;48.720;9.588;2022-09-30T14:56:48;2.17;;;1.10;;
18405;SDS011;9329;48.720;9.588;2022-09-30T14:59:19;3.05;;;1.05;;
18405;SDS011;9329;48.720;9.588;2022-09-30T15:01:52;2.85;;;1.10;;
18405;SDS011;9329;48.720;9.588;2022-09-30T15:04:25;19.93;;;7.23;;
18405;SDS011;9329;48.720;9.588;2022-09-30T15:06:55;7.50;;;2.40;;
18405;SDS011;9329;48.720;9.588;2022-09-30T15:09:26;2.28;;;1.20;;
18405;SDS011;9329;48.720;9.588;2022-09-30T15:12:01;2.75;;;1.30;;
18405;SDS011;9329;48.720;9.588;2022-09-30T15:14:29;3.88;;;1.50;;
18405;SDS011;9329;48.720;9.588;2022-09-30T15:16:59;3.38;;;1.45;;
18405;SDS011;9329;48.720;9.588;2022-09-30T15:19:26;3.58;;;1.25;;
18405;SDS011;9329;48.720;9.588;2022-09-30T15:21:56;4.82;;;1.27;;
18405;SDS011;9329;48.720;9.588;2022-09-30T15:24:26;2.17;;;1.20;;
18405;SDS011;9329;48.720;9.588;2022-09-30T15:26:57;2.75;;;1.50;;
18405;SDS011;9329;48.720;9.588;2022-09-30T15:29:25;2.45;;;1.35;;
18405;SDS011;9329;48.720;9.588;2022-09-30T15:31:54;3.00;;;1.93;;
18405;SDS011;9329;48.720;9.588;2022-09-30T15:34:28;9.50;;;4.70;;
18405;SDS011;9329;48.720;9.588;2022-09-30T15:36:56;5.07;;;1.77;;
18405;SDS011;9329;48.720;9.588;2022-09-30T15:39:30;4.28;;;1.70;;
18405;SDS011;9329;48.720;9.588;2022-09-30T15:42:26;2.28;;;1.45;;
18405;SDS011;9329;48.720;9.588;2022-09-30T15:44:56;3.45;;;1.40;;
18405;SDS011;9329;48.720;9.588;2022-09-30T15:47:25;2.58;;;1.40;;
18405;SDS011;9329;48.720;9.588;2022-09-30T15:49:55;3.93;;;1.70;;
18405;SDS011;9329;48.720;9.588;2022-09-30T15:52:26;3.42;;;1.77;;
18405;SDS011;9329;48.720;9.588;2022-09-30T15:55:03;5.13;;;1.70;;
18405;SDS011;9329;48.720;9.588;2022-09-30T16:01:09;2.90;;;1.70;;
18405;SDS011;9329;48.720;9.588;2022-09-30T16:03:48;3.42;;;1.73;;